sensor_id;sensor_type;location;lat;lon;timestamp;P1;durP1;ratioP1;P2;durP2;ratioP2
48124;SDS011;33908;47.436;18.918;2023-02-15T00:00:09;1.62;;;1.52;;
48124;SDS011;33908;47.436;18.918;2023-02-15T00:02:40;2.10;;;1.60;;
48124;SDS011;33908;47.436;18.918;2023-02-15T00:05:07;3.50;;;3.20;;
48124;SDS011;33908;47.436;18.918;2023-02-15T00:07:35;1.70;;;1.60;;
48124;SDS011;33908;47.436;18.918;2023-02-15T00:10:03;1.50;;;1.40;;
48124;SDS011;33908;47.436;18.918;2023-02-15T00:12:32;2.55;;;2.37;;
48124;SDS011;33908;47.436;18.918;2023-02-15T00:14:59;1.15;;;1.15;;
48124;SDS011;33908;47.436;18.918;2023-02-15T00:17:28;0.52;;;0.52;;
48124;SDS011;33908;47.436;18.918;2023-02-15T00:19:55;1.00;;;1.00;;
48124;SDS011;33908;47.436;18.918;2023-02-15T00:22:23;0.20;;;0.20;;
48124;SDS011;33908;47.436;18.918;2023-02-15T00:24:51;1.37;;;1.37;;
48124;SDS011;33908;47.436;18.918;2023-02-15T00:27:18;0.70;;;0.70;;
48124;SDS011;33908;47.436;18.918;2023-02-15T00:29:46;1.48;;;1.37;;
48124;SDS011;33908;47.436;18.918;2023-02-15T00:32:14;0.43;;;0.43;;
48124;SDS011;33908;47.436;18.918;2023-02-15T00:34:42;2.92;;;2.72;;
48124;SDS011;33908;47.436;18.918;2023-02-15T00:37:10;1.30;;;1.30;;
48124;SDS011;33908;47.436;18.918;2023-02-15T00:39:38;2.40;;;2.00;;
48124;SDS011;33908;47.436;18.918;2023-02-15T00:42:06;0.25;;;0.25;;
48124;SDS011;33908;47.436;18.918;2023-02-15T00:44:33;0.52;;;0.52;;
48124;SDS011;33908;47.436;18.918;2023-02-15T00:47:01;0.62;;;0.62;;
48124;SDS011;33908;47.436;18.918;2023-02-15T00:49:29;1.95;;;1.85;;
48124;SDS011;33908;47.436;18.918;2023-02-15T00:51:56;1.85;;;1.75;;
48124;SDS011;33908;47.436;18.918;2023-02-15T00:54:24;3.12;;;2.83;;
48124;SDS011;33908;47.436;18.918;2023-02-15T00:56:52;2.37;;;2.20;;
48124;SDS011;33908;47.436;18.918;2023-02-15T00:59:19;3.95;;;0.77;;
48124;SDS011;33908;47.436;18.918;2023-02-15T01:01:47;1.02;;;0.98;;
48124;SDS011;33908;47.436;18.918;2023-02-15T01:04:15;1.30;;;1.30;;
48124;SDS011;33908;47.436;18.918;2023-02-15T01:06:43;1.23;;;1.23;;
48124;SDS011;33908;47.436;18.918;2023-02-15T01:09:10;0.93;;;0.77;;
48124;SDS011;33908;47.436;18.918;2023-02-15T01:11:39;1.20;;;1.20;;
48124;SDS011;33908;47.436;18.918;2023-02-15T01:14:07;1.30;;;1.23;;
48124;SDS011;33908;47.436;18.918;2023-02-15T01:16:37;1.55;;;1.37;;
48124;SDS011;33908;47.436;18.918;2023-02-15T01:19:05;1.08;;;1.08;;
48124;SDS011;33908;47.436;18.918;2023-02-15T01:21:33;0.50;;;0.50;;
48124;SDS011;33908;47.436;18.918;2023-02-15T01:24:02;7.93;;;2.75;;
48124;SDS011;33908;47.436;18.918;2023-02-15T01:26:30;1.65;;;1.55;;
48124;SDS011;33908;47.436;18.918;2023-02-15T01:28:58;1.77;;;1.65;;
48124;SDS011;33908;47.436;18.918;2023-02-15T01:31:26;2.97;;;2.78;;
48124;SDS011;33908;47.436;18.918;2023-02-15T01:33:54;2.15;;;1.08;;
48124;SDS011;33908;47.436;18.918;2023-02-15T01:36:21;0.45;;;0.45;;
48124;SDS011;33908;47.436;18.918;2023-02-15T01:38:51;0.93;;;0.93;;
48124;SDS011;33908;47.436;18.918;2023-02-15T01:41:19;0.88;;;0.88;;
48124;SDS011;33908;47.436;18.918;2023-02-15T01:43:58;0.50;;;0.50;;
48124;SDS011;33908;47.436;18.918;2023-02-15T01:46:30;0.35;;;0.35;;
48124;SDS011;33908;47.436;18.918;2023-02-15T01:49:02;1.23;;;1.15;;
48124;SDS011;33908;47.436;18.918;2023-02-15T01:51:33;4.75;;;1.87;;
48124;SDS011;33908;47.436;18.918;2023-02-15T01:54:05;2.45;;;0.90;;
48124;SDS011;33908;47.436;18.918;2023-02-15T01:56:37;1.40;;;1.40;;
48124;SDS011;33908;47.436;18.918;2023-02-15T01:59:08;0.85;;;0.85;;
48124;SDS011;33908;47.436;18.918;2023-02-15T02:01:38;0.60;;;0.60;;
48124;SDS011;33908;47.436;18.918;2023-02-15T02:06:34;1.48;;;1.37;;
48124;SDS011;33908;47.436;18.918;2023-02-15T02:09:03;0.50;;;0.50;;
48124;SDS011;33908;47.436;18.918;2023-02-15T02:11:32;0.88;;;0.88;;
48124;SDS011;33908;47.436;18.918;2023-02-15T02:14:00;2.30;;;1.80;;
48124;SDS011;33908;47.436;18.918;2023-02-15T02:16:30;3.05;;;2.85;;
48124;SDS011;33908;47.436;18.918;2023-02-15T02:19:10;1.92;;;1.50;;
48124;SDS011;33908;47.436;18.918;2023-02-15T02:22:07;0.40;;;0.40;;
48124;SDS011;33908;47.436;18.918;2023-02-15T02:30:36;0.13;;;0.13;;
48124;SDS011;33908;47.436;18.918;2023-02-15T02:41:25;1.62;;;1.42;;
48124;SDS011;33908;47.436;18.918;2023-02-15T02:44:21;0.10;;;0.10;;
48124;SDS011;33908;47.436;18.918;2023-02-15T02:47:04;2.37;;;1.20;;
48124;SDS011;33908;47.436;18.918;2023-02-15T02:49:43;0.30;;;0.30;;
48124;SDS011;33908;47.436;18.918;2023-02-15T02:55:03;0.90;;;0.90;;
48124;SDS011;33908;47.436;18.918;2023-02-15T02:57:35;2.08;;;1.25;;
48124;SDS011;33908;47.436;18.918;2023-02-15T03:00:05;1.65;;;1.55;;
48124;SDS011;33908;47.436;18.918;2023-02-15T03:02:37;0.47;;;0.47;;
48124;SDS011;33908;47.436;18.918;2023-02-15T03:05:08;1.53;;;1.13;;
48124;SDS011;33908;47.436;18.918;2023-02-15T03:07:39;0.20;;;0.20;;
48124;SDS011;33908;47.436;18.918;2023-02-15T03:10:08;0.60;;;0.60;;
48124;SDS011;33908;47.436;18.918;2023-02-15T03:12:39;1.92;;;1.75;;
48124;SDS011;33908;47.436;18.918;2023-02-15T03:20:33;0.47;;;0.47;;
48124;SDS011;33908;47.436;18.918;2023-02-15T03:23:02;1.17;;;1.08;;
48124;SDS011;33908;47.436;18.918;2023-02-15T03:28:06;3.85;;;1.02;;
48124;SDS011;33908;47.436;18.918;2023-02-15T03:30:36;0.75;;;0.73;;
48124;SDS011;33908;47.436;18.918;2023-02-15T03:33:04;0.73;;;0.73;;
48124;SDS011;33908;47.436;18.918;2023-02-15T03:38:43;0.22;;;0.22;;
48124;SDS011;33908;47.436;18.918;2023-02-15T03:41:15;0.13;;;0.13;;
48124;SDS011;33908;47.436;18.918;2023-02-15T03:46:35;2.65;;;0.62;;
48124;SDS011;33908;47.436;18.918;2023-02-15T03:49:09;0.52;;;0.52;;
48124;SDS011;33908;47.436;18.918;2023-02-15T03:51:40;2.97;;;1.95;;
48124;SDS011;33908;47.436;18.918;2023-02-15T03:54:12;0.47;;;0.47;;
48124;SDS011;33908;47.436;18.918;2023-02-15T03:59:49;0.90;;;0.73;;
48124;SDS011;33908;47.436;18.918;2023-02-15T04:03:03;0.43;;;0.43;;
48124;SDS011;33908;47.436;18.918;2023-02-15T04:05:44;2.35;;;1.45;;
48124;SDS011;33908;47.436;18.918;2023-02-15T04:08:12;1.98;;;1.33;;
48124;SDS011;33908;47.436;18.918;2023-02-15T04:10:40;1.17;;;1.17;;
48124;SDS011;33908;47.436;18.918;2023-02-15T04:13:29;0.98;;;0.57;;
48124;SDS011;33908;47.436;18.918;2023-02-15T04:15:57;1.02;;;1.02;;
48124;SDS011;33908;47.436;18.918;2023-02-15T04:21:19;0.10;;;0.10;;
48124;SDS011;33908;47.436;18.918;2023-02-15T04:24:07;0.20;;;0.20;;
48124;SDS011;33908;47.436;18.918;2023-02-15T04:26:54;1.30;;;1.20;;
48124;SDS011;33908;47.436;18.918;2023-02-15T04:29:23;0.57;;;0.57;;
48124;SDS011;33908;47.436;18.918;2023-02-15T04:31:52;1.37;;;1.37;;
48124;SDS011;33908;47.436;18.918;2023-02-15T04:34:21;0.30;;;0.30;;
48124;SDS011;33908;47.436;18.918;2023-02-15T04:36:49;0.10;;;0.10;;
48124;SDS011;33908;47.436;18.918;2023-02-15T04:39:18;0.52;;;0.52;;
48124;SDS011;33908;47.436;18.918;2023-02-15T04:41:46;4.22;;;1.98;;
48124;SDS011;33908;47.436;18.918;2023-02-15T04:44:15;1.87;;;1.73;;
48124;SDS011;33908;47.436;18.918;2023-02-15T04:46:43;0.65;;;0.65;;
48124;SDS011;33908;47.436;18.918;2023-02-15T04:49:11;1.52;;;1.45;;
48124;SDS011;33908;47.436;18.918;2023-02-15T04:51:39;0.93;;;0.93;;
48124;SDS011;33908;47.436;18.918;2023-02-15T04:54:06;1.08;;;1.00;;
48124;SDS011;33908;47.436;18.918;2023-02-15T04:56:34;1.12;;;1.12;;
48124;SDS011;33908;47.436;18.918;2023-02-15T04:59:05;0.77;;;0.77;;
48124;SDS011;33908;47.436;18.918;2023-02-15T05:01:33;3.92;;;1.67;;
48124;SDS011;33908;47.436;18.918;2023-02-15T05:04:00;2.97;;;1.83;;
48124;SDS011;33908;47.436;18.918;2023-02-15T05:06:28;0.62;;;0.62;;
48124;SDS011;33908;47.436;18.918;2023-02-15T05:08:56;1.40;;;1.40;;
48124;SDS011;33908;47.436;18.918;2023-02-15T05:11:26;2.58;;;1.77;;
48124;SDS011;33908;47.436;18.918;2023-02-15T05:13:54;0.32;;;0.32;;
48124;SDS011;33908;47.436;18.918;2023-02-15T05:16:22;0.57;;;0.43;;
48124;SDS011;33908;47.436;18.918;2023-02-15T05:18:50;0.60;;;0.60;;
48124;SDS011;33908;47.436;18.918;2023-02-15T05:21:19;0.60;;;0.60;;
48124;SDS011;33908;47.436;18.918;2023-02-15T05:23:46;0.20;;;0.20;;
48124;SDS011;33908;47.436;18.918;2023-02-15T05:26:21;5.30;;;3.53;;
48124;SDS011;33908;47.436;18.918;2023-02-15T05:29:09;2.17;;;2.08;;
48124;SDS011;33908;47.436;18.918;2023-02-15T05:31:37;1.42;;;0.80;;
48124;SDS011;33908;47.436;18.918;2023-02-15T05:34:05;3.20;;;1.90;;
48124;SDS011;33908;47.436;18.918;2023-02-15T05:36:33;2.83;;;2.72;;
48124;SDS011;33908;47.436;18.918;2023-02-15T05:39:01;1.02;;;1.02;;
48124;SDS011;33908;47.436;18.918;2023-02-15T05:41:31;4.62;;;3.55;;
48124;SDS011;33908;47.436;18.918;2023-02-15T05:43:59;4.97;;;3.47;;
48124;SDS011;33908;47.436;18.918;2023-02-15T05:46:26;0.80;;;0.62;;
48124;SDS011;33908;47.436;18.918;2023-02-15T05:48:54;0.82;;;0.82;;
48124;SDS011;33908;47.436;18.918;2023-02-15T05:51:22;1.10;;;1.10;;
48124;SDS011;33908;47.436;18.918;2023-02-15T05:53:49;1.48;;;1.45;;
48124;SDS011;33908;47.436;18.918;2023-02-15T05:56:17;1.30;;;1.30;;
48124;SDS011;33908;47.436;18.918;2023-02-15T05:58:45;3.42;;;3.15;;
48124;SDS011;33908;47.436;18.918;2023-02-15T06:01:14;1.10;;;1.10;;
48124;SDS011;33908;47.436;18.918;2023-02-15T06:03:45;0.82;;;0.82;;
48124;SDS011;33908;47.436;18.918;2023-02-15T06:06:12;1.08;;;1.08;;
48124;SDS011;33908;47.436;18.918;2023-02-15T06:08:40;0.98;;;0.98;;
48124;SDS011;33908;47.436;18.918;2023-02-15T06:11:09;2.47;;;2.30;;
48124;SDS011;33908;47.436;18.918;2023-02-15T06:13:39;2.42;;;1.70;;
48124;SDS011;33908;47.436;18.918;2023-02-15T06:16:07;1.62;;;1.58;;
48124;SDS011;33908;47.436;18.918;2023-02-15T06:18:35;0.37;;;0.37;;
48124;SDS011;33908;47.436;18.918;2023-02-15T06:21:03;2.72;;;2.53;;
48124;SDS011;33908;47.436;18.918;2023-02-15T06:23:30;0.45;;;0.45;;
48124;SDS011;33908;47.436;18.918;2023-02-15T06:25:58;1.95;;;1.85;;
48124;SDS011;33908;47.436;18.918;2023-02-15T06:28:26;2.08;;;1.98;;
48124;SDS011;33908;47.436;18.918;2023-02-15T06:30:53;1.75;;;1.67;;
48124;SDS011;33908;47.436;18.918;2023-02-15T06:33:22;2.95;;;2.75;;
48124;SDS011;33908;47.436;18.918;2023-02-15T06:35:50;2.62;;;2.45;;
48124;SDS011;33908;47.436;18.918;2023-02-15T06:38:17;1.17;;;1.17;;
48124;SDS011;33908;47.436;18.918;2023-02-15T06:40:46;0.62;;;0.62;;
48124;SDS011;33908;47.436;18.918;2023-02-15T06:43:14;2.95;;;0.73;;
48124;SDS011;33908;47.436;18.918;2023-02-15T06:45:41;1.00;;;1.00;;
48124;SDS011;33908;47.436;18.918;2023-02-15T06:48:10;3.12;;;2.12;;
48124;SDS011;33908;47.436;18.918;2023-02-15T06:50:38;14.65;;;3.33;;
48124;SDS011;33908;47.436;18.918;2023-02-15T06:53:06;1.52;;;1.35;;
48124;SDS011;33908;47.436;18.918;2023-02-15T06:55:34;0.98;;;0.98;;
48124;SDS011;33908;47.436;18.918;2023-02-15T06:58:01;2.08;;;1.98;;
48124;SDS011;33908;47.436;18.918;2023-02-15T07:00:29;0.55;;;0.55;;
48124;SDS011;33908;47.436;18.918;2023-02-15T07:02:57;2.28;;;2.08;;
48124;SDS011;33908;47.436;18.918;2023-02-15T07:05:26;0.82;;;0.82;;
48124;SDS011;33908;47.436;18.918;2023-02-15T07:07:58;1.52;;;1.52;;
48124;SDS011;33908;47.436;18.918;2023-02-15T07:10:26;1.65;;;1.48;;
48124;SDS011;33908;47.436;18.918;2023-02-15T07:12:54;1.52;;;1.42;;
48124;SDS011;33908;47.436;18.918;2023-02-15T07:15:22;2.50;;;2.35;;
48124;SDS011;33908;47.436;18.918;2023-02-15T07:17:50;1.23;;;1.15;;
48124;SDS011;33908;47.436;18.918;2023-02-15T07:20:18;4.05;;;3.75;;
48124;SDS011;33908;47.436;18.918;2023-02-15T07:22:48;2.72;;;1.75;;
48124;SDS011;33908;47.436;18.918;2023-02-15T07:25:16;2.00;;;1.90;;
48124;SDS011;33908;47.436;18.918;2023-02-15T07:27:44;3.08;;;2.60;;
48124;SDS011;33908;47.436;18.918;2023-02-15T07:30:15;3.12;;;2.80;;
48124;SDS011;33908;47.436;18.918;2023-02-15T07:32:45;3.10;;;2.83;;
48124;SDS011;33908;47.436;18.918;2023-02-15T07:35:32;3.20;;;2.00;;
48124;SDS011;33908;47.436;18.918;2023-02-15T07:38:01;1.00;;;0.95;;
48124;SDS011;33908;47.436;18.918;2023-02-15T07:40:30;1.80;;;1.70;;
48124;SDS011;33908;47.436;18.918;2023-02-15T07:42:58;1.58;;;1.50;;
48124;SDS011;33908;47.436;18.918;2023-02-15T07:45:26;1.17;;;1.00;;
48124;SDS011;33908;47.436;18.918;2023-02-15T07:47:54;1.00;;;1.00;;
48124;SDS011;33908;47.436;18.918;2023-02-15T07:50:23;3.20;;;2.30;;
48124;SDS011;33908;47.436;18.918;2023-02-15T07:52:50;2.90;;;2.70;;
48124;SDS011;33908;47.436;18.918;2023-02-15T07:55:37;6.90;;;1.27;;
48124;SDS011;33908;47.436;18.918;2023-02-15T07:58:18;1.55;;;1.45;;
48124;SDS011;33908;47.436;18.918;2023-02-15T08:00:46;1.73;;;1.35;;
48124;SDS011;33908;47.436;18.918;2023-02-15T08:05:56;0.55;;;0.55;;
48124;SDS011;33908;47.436;18.918;2023-02-15T08:08:35;0.32;;;0.32;;
48124;SDS011;33908;47.436;18.918;2023-02-15T08:14:03;1.20;;;1.10;;
48124;SDS011;33908;47.436;18.918;2023-02-15T08:16:36;2.78;;;2.58;;
48124;SDS011;33908;47.436;18.918;2023-02-15T08:19:19;1.77;;;1.67;;
48124;SDS011;33908;47.436;18.918;2023-02-15T08:21:57;1.58;;;1.48;;
48124;SDS011;33908;47.436;18.918;2023-02-15T08:24:28;0.68;;;0.68;;
48124;SDS011;33908;47.436;18.918;2023-02-15T08:26:57;5.78;;;4.15;;
48124;SDS011;33908;47.436;18.918;2023-02-15T08:29:26;2.83;;;2.53;;
48124;SDS011;33908;47.436;18.918;2023-02-15T08:31:56;2.70;;;1.67;;
48124;SDS011;33908;47.436;18.918;2023-02-15T08:34:26;2.90;;;2.65;;
48124;SDS011;33908;47.436;18.918;2023-02-15T08:36:53;2.42;;;1.73;;
48124;SDS011;33908;47.436;18.918;2023-02-15T08:39:21;0.95;;;0.88;;
48124;SDS011;33908;47.436;18.918;2023-02-15T08:41:49;1.48;;;1.37;;
48124;SDS011;33908;47.436;18.918;2023-02-15T08:44:18;1.80;;;1.77;;
48124;SDS011;33908;47.436;18.918;2023-02-15T08:46:47;1.65;;;1.58;;
48124;SDS011;33908;47.436;18.918;2023-02-15T08:49:16;2.75;;;2.55;;
48124;SDS011;33908;47.436;18.918;2023-02-15T08:51:47;2.17;;;2.05;;
48124;SDS011;33908;47.436;18.918;2023-02-15T08:54:16;2.03;;;1.92;;
48124;SDS011;33908;47.436;18.918;2023-02-15T08:56:45;1.60;;;1.50;;
48124;SDS011;33908;47.436;18.918;2023-02-15T08:59:15;8.48;;;3.78;;
48124;SDS011;33908;47.436;18.918;2023-02-15T09:01:45;1.73;;;1.30;;
48124;SDS011;33908;47.436;18.918;2023-02-15T09:04:14;1.42;;;0.75;;
48124;SDS011;33908;47.436;18.918;2023-02-15T09:06:43;3.65;;;3.33;;
48124;SDS011;33908;47.436;18.918;2023-02-15T09:09:15;23.25;;;3.60;;
48124;SDS011;33908;47.436;18.918;2023-02-15T09:11:45;7.97;;;1.75;;
48124;SDS011;33908;47.436;18.918;2023-02-15T09:14:16;1.45;;;1.35;;
48124;SDS011;33908;47.436;18.918;2023-02-15T09:16:46;1.12;;;1.12;;
48124;SDS011;33908;47.436;18.918;2023-02-15T09:19:16;0.98;;;0.98;;
48124;SDS011;33908;47.436;18.918;2023-02-15T09:21:45;4.82;;;2.67;;
48124;SDS011;33908;47.436;18.918;2023-02-15T09:24:14;7.70;;;3.37;;
48124;SDS011;33908;47.436;18.918;2023-02-15T09:26:45;2.33;;;2.12;;
48124;SDS011;33908;47.436;18.918;2023-02-15T09:29:14;4.68;;;2.58;;
48124;SDS011;33908;47.436;18.918;2023-02-15T09:31:48;12.68;;;3.25;;
48124;SDS011;33908;47.436;18.918;2023-02-15T09:34:18;0.30;;;0.30;;
48124;SDS011;33908;47.436;18.918;2023-02-15T09:36:47;3.47;;;3.28;;
48124;SDS011;33908;47.436;18.918;2023-02-15T09:39:16;9.60;;;3.30;;
48124;SDS011;33908;47.436;18.918;2023-02-15T09:49:45;5.28;;;4.78;;
48124;SDS011;33908;47.436;18.918;2023-02-15T09:58:01;7.97;;;3.33;;
48124;SDS011;33908;47.436;18.918;2023-02-15T10:00:51;3.17;;;2.95;;
48124;SDS011;33908;47.436;18.918;2023-02-15T10:06:38;3.90;;;3.42;;
48124;SDS011;33908;47.436;18.918;2023-02-15T10:14:51;2.20;;;2.08;;
48124;SDS011;33908;47.436;18.918;2023-02-15T10:28:29;3.78;;;2.47;;
48124;SDS011;33908;47.436;18.918;2023-02-15T10:31:25;1.45;;;1.40;;
48124;SDS011;33908;47.436;18.918;2023-02-15T10:37:09;21.92;;;3.97;;
48124;SDS011;33908;47.436;18.918;2023-02-15T10:39:43;3.03;;;2.83;;
48124;SDS011;33908;47.436;18.918;2023-02-15T10:45:49;2.35;;;2.15;;
48124;SDS011;33908;47.436;18.918;2023-02-15T10:48:24;6.40;;;3.05;;
48124;SDS011;33908;47.436;18.918;2023-02-15T10:56:53;2.20;;;2.10;;
48124;SDS011;33908;47.436;18.918;2023-02-15T11:02:02;3.12;;;2.58;;
48124;SDS011;33908;47.436;18.918;2023-02-15T11:04:45;2.22;;;2.12;;
48124;SDS011;33908;47.436;18.918;2023-02-15T11:07:23;8.35;;;3.53;;
48124;SDS011;33908;47.436;18.918;2023-02-15T11:09:59;4.57;;;2.85;;
48124;SDS011;33908;47.436;18.918;2023-02-15T11:12:33;4.72;;;3.03;;
48124;SDS011;33908;47.436;18.918;2023-02-15T11:15:09;2.47;;;2.33;;
48124;SDS011;33908;47.436;18.918;2023-02-15T11:17:43;1.35;;;1.25;;
48124;SDS011;33908;47.436;18.918;2023-02-15T11:20:16;6.57;;;3.85;;
48124;SDS011;33908;47.436;18.918;2023-02-15T11:22:49;4.78;;;3.35;;
48124;SDS011;33908;47.436;18.918;2023-02-15T11:25:25;1.90;;;1.80;;
48124;SDS011;33908;47.436;18.918;2023-02-15T11:27:57;3.10;;;2.83;;
48124;SDS011;33908;47.436;18.918;2023-02-15T11:30:27;2.33;;;1.62;;
48124;SDS011;33908;47.436;18.918;2023-02-15T11:33:00;13.60;;;3.78;;
48124;SDS011;33908;47.436;18.918;2023-02-15T11:35:53;4.70;;;2.67;;
48124;SDS011;33908;47.436;18.918;2023-02-15T11:40:57;3.83;;;3.10;;
48124;SDS011;33908;47.436;18.918;2023-02-15T11:43:31;1.52;;;1.42;;
48124;SDS011;33908;47.436;18.918;2023-02-15T11:46:02;2.15;;;0.82;;
48124;SDS011;33908;47.436;18.918;2023-02-15T11:48:30;1.58;;;1.27;;
48124;SDS011;33908;47.436;18.918;2023-02-15T11:50:59;3.50;;;3.28;;
48124;SDS011;33908;47.436;18.918;2023-02-15T11:53:30;4.62;;;2.30;;
48124;SDS011;33908;47.436;18.918;2023-02-15T11:56:00;4.30;;;3.20;;
48124;SDS011;33908;47.436;18.918;2023-02-15T11:58:29;7.25;;;3.60;;
48124;SDS011;33908;47.436;18.918;2023-02-15T12:10:38;1.12;;;1.12;;
48124;SDS011;33908;47.436;18.918;2023-02-15T12:12:49;3.20;;;1.95;;
48124;SDS011;33908;47.436;18.918;2023-02-15T12:15:36;3.53;;;2.90;;
48124;SDS011;33908;47.436;18.918;2023-02-15T12:18:04;5.90;;;3.17;;
48124;SDS011;33908;47.436;18.918;2023-02-15T12:20:33;1.92;;;1.83;;
48124;SDS011;33908;47.436;18.918;2023-02-15T12:23:03;2.92;;;2.62;;
48124;SDS011;33908;47.436;18.918;2023-02-15T12:28:26;6.70;;;3.05;;
48124;SDS011;33908;47.436;18.918;2023-02-15T12:31:00;3.83;;;2.55;;
48124;SDS011;33908;47.436;18.918;2023-02-15T12:33:34;2.92;;;2.05;;
48124;SDS011;33908;47.436;18.918;2023-02-15T12:36:25;2.17;;;2.08;;
48124;SDS011;33908;47.436;18.918;2023-02-15T12:39:02;3.85;;;2.78;;
48124;SDS011;33908;47.436;18.918;2023-02-15T12:41:36;2.92;;;2.72;;
48124;SDS011;33908;47.436;18.918;2023-02-15T12:47:32;2.53;;;2.33;;
48124;SDS011;33908;47.436;18.918;2023-02-15T12:49:43;1.73;;;1.62;;
48124;SDS011;33908;47.436;18.918;2023-02-15T12:54:45;4.95;;;2.75;;
48124;SDS011;33908;47.436;18.918;2023-02-15T12:57:32;4.20;;;3.85;;
48124;SDS011;33908;47.436;18.918;2023-02-15T13:00:04;2.30;;;2.15;;
48124;SDS011;33908;47.436;18.918;2023-02-15T13:02:53;3.85;;;2.35;;
48124;SDS011;33908;47.436;18.918;2023-02-15T13:05:29;2.33;;;2.12;;
48124;SDS011;33908;47.436;18.918;2023-02-15T13:08:12;3.85;;;2.92;;
48124;SDS011;33908;47.436;18.918;2023-02-15T13:10:53;2.87;;;2.65;;
48124;SDS011;33908;47.436;18.918;2023-02-15T13:13:27;3.00;;;2.50;;
48124;SDS011;33908;47.436;18.918;2023-02-15T13:15:58;3.15;;;1.30;;
48124;SDS011;33908;47.436;18.918;2023-02-15T13:21:04;1.83;;;1.73;;
48124;SDS011;33908;47.436;18.918;2023-02-15T13:24:05;5.12;;;3.47;;
48124;SDS011;33908;47.436;18.918;2023-02-15T13:26:38;0.98;;;0.95;;
48124;SDS011;33908;47.436;18.918;2023-02-15T13:29:24;2.87;;;2.60;;
48124;SDS011;33908;47.436;18.918;2023-02-15T13:31:57;1.80;;;1.70;;
48124;SDS011;33908;47.436;18.918;2023-02-15T13:34:33;4.32;;;3.12;;
48124;SDS011;33908;47.436;18.918;2023-02-15T13:37:08;1.77;;;1.65;;
48124;SDS011;33908;47.436;18.918;2023-02-15T13:39:49;6.25;;;2.17;;
48124;SDS011;33908;47.436;18.918;2023-02-15T13:42:40;1.77;;;1.62;;
48124;SDS011;33908;47.436;18.918;2023-02-15T13:45:21;3.50;;;3.20;;
48124;SDS011;33908;47.436;18.918;2023-02-15T13:48:01;7.28;;;3.12;;
48124;SDS011;33908;47.436;18.918;2023-02-15T13:59:29;2.30;;;1.83;;
48124;SDS011;33908;47.436;18.918;2023-02-15T14:10:00;3.62;;;1.83;;
48124;SDS011;33908;47.436;18.918;2023-02-15T14:18:20;2.78;;;2.17;;
48124;SDS011;33908;47.436;18.918;2023-02-15T14:29:35;1.98;;;1.85;;
48124;SDS011;33908;47.436;18.918;2023-02-15T14:32:12;2.30;;;1.62;;
48124;SDS011;33908;47.436;18.918;2023-02-15T14:37:20;4.57;;;3.30;;
48124;SDS011;33908;47.436;18.918;2023-02-15T14:43:34;6.53;;;4.70;;
48124;SDS011;33908;47.436;18.918;2023-02-15T14:48:46;14.70;;;3.00;;
48124;SDS011;33908;47.436;18.918;2023-02-15T14:56:45;1.77;;;1.65;;
48124;SDS011;33908;47.436;18.918;2023-02-15T14:59:14;3.92;;;3.25;;
48124;SDS011;33908;47.436;18.918;2023-02-15T15:01:51;3.03;;;2.47;;
48124;SDS011;33908;47.436;18.918;2023-02-15T15:04:31;4.05;;;3.67;;
48124;SDS011;33908;47.436;18.918;2023-02-15T15:07:09;9.93;;;3.83;;
48124;SDS011;33908;47.436;18.918;2023-02-15T15:12:47;3.42;;;2.87;;
48124;SDS011;33908;47.436;18.918;2023-02-15T15:17:59;3.08;;;2.83;;
48124;SDS011;33908;47.436;18.918;2023-02-15T15:20:45;2.12;;;1.67;;
48124;SDS011;33908;47.436;18.918;2023-02-15T15:25:55;2.25;;;1.80;;
48124;SDS011;33908;47.436;18.918;2023-02-15T15:31:14;2.65;;;1.67;;
48124;SDS011;33908;47.436;18.918;2023-02-15T15:36:41;3.70;;;2.85;;
48124;SDS011;33908;47.436;18.918;2023-02-15T15:42:01;2.05;;;1.23;;
48124;SDS011;33908;47.436;18.918;2023-02-15T15:49:57;2.90;;;1.37;;
48124;SDS011;33908;47.436;18.918;2023-02-15T15:54:57;2.22;;;1.33;;
48124;SDS011;33908;47.436;18.918;2023-02-15T15:57:34;3.67;;;3.12;;
48124;SDS011;33908;47.436;18.918;2023-02-15T16:00:17;0.85;;;0.85;;
48124;SDS011;33908;47.436;18.918;2023-02-15T16:02:51;3.37;;;3.08;;
48124;SDS011;33908;47.436;18.918;2023-02-15T16:05:19;3.28;;;3.08;;
48124;SDS011;33908;47.436;18.918;2023-02-15T16:07:48;4.47;;;3.60;;
48124;SDS011;33908;47.436;18.918;2023-02-15T16:10:24;2.72;;;2.20;;
48124;SDS011;33908;47.436;18.918;2023-02-15T16:12:53;2.20;;;2.00;;
48124;SDS011;33908;47.436;18.918;2023-02-15T16:15:23;3.75;;;3.40;;
48124;SDS011;33908;47.436;18.918;2023-02-15T16:17:53;7.90;;;2.33;;
48124;SDS011;33908;47.436;18.918;2023-02-15T16:20:35;8.48;;;2.53;;
48124;SDS011;33908;47.436;18.918;2023-02-15T16:23:07;5.35;;;4.85;;
48124;SDS011;33908;47.436;18.918;2023-02-15T16:28:31;3.83;;;2.40;;
48124;SDS011;33908;47.436;18.918;2023-02-15T16:31:07;6.50;;;2.60;;
48124;SDS011;33908;47.436;18.918;2023-02-15T16:33:40;2.42;;;1.15;;
48124;SDS011;33908;47.436;18.918;2023-02-15T16:36:19;3.12;;;2.87;;
48124;SDS011;33908;47.436;18.918;2023-02-15T16:41:21;1.33;;;1.17;;
48124;SDS011;33908;47.436;18.918;2023-02-15T16:43:49;3.12;;;2.83;;
48124;SDS011;33908;47.436;18.918;2023-02-15T16:46:31;25.75;;;5.28;;
48124;SDS011;33908;47.436;18.918;2023-02-15T16:51:31;9.10;;;4.78;;
48124;SDS011;33908;47.436;18.918;2023-02-15T16:54:03;3.12;;;2.95;;
48124;SDS011;33908;47.436;18.918;2023-02-15T16:56:35;9.93;;;3.70;;
48124;SDS011;33908;47.436;18.918;2023-02-15T16:59:05;7.10;;;6.40;;
48124;SDS011;33908;47.436;18.918;2023-02-15T17:01:33;8.07;;;6.30;;
48124;SDS011;33908;47.436;18.918;2023-02-15T17:04:24;18.67;;;13.62;;
48124;SDS011;33908;47.436;18.918;2023-02-15T17:07:05;11.40;;;9.05;;
48124;SDS011;33908;47.436;18.918;2023-02-15T17:09:54;12.50;;;9.50;;
48124;SDS011;33908;47.436;18.918;2023-02-15T17:18:12;11.55;;;5.78;;
48124;SDS011;33908;47.436;18.918;2023-02-15T17:20:46;10.65;;;3.22;;
48124;SDS011;33908;47.436;18.918;2023-02-15T17:23:22;2.20;;;2.10;;
48124;SDS011;33908;47.436;18.918;2023-02-15T17:25:58;7.25;;;5.03;;
48124;SDS011;33908;47.436;18.918;2023-02-15T17:28:29;9.50;;;5.70;;
48124;SDS011;33908;47.436;18.918;2023-02-15T17:30:58;3.83;;;2.92;;
48124;SDS011;33908;47.436;18.918;2023-02-15T17:36:08;8.25;;;4.70;;
48124;SDS011;33908;47.436;18.918;2023-02-15T17:38:42;4.18;;;3.15;;
48124;SDS011;33908;47.436;18.918;2023-02-15T17:41:29;5.82;;;4.30;;
48124;SDS011;33908;47.436;18.918;2023-02-15T17:43:58;3.92;;;3.55;;
48124;SDS011;33908;47.436;18.918;2023-02-15T17:46:25;4.43;;;4.10;;
48124;SDS011;33908;47.436;18.918;2023-02-15T17:48:56;5.05;;;3.92;;
48124;SDS011;33908;47.436;18.918;2023-02-15T17:51:23;4.43;;;4.12;;
48124;SDS011;33908;47.436;18.918;2023-02-15T17:53:51;3.58;;;3.37;;
48124;SDS011;33908;47.436;18.918;2023-02-15T17:56:38;3.83;;;3.53;;
48124;SDS011;33908;47.436;18.918;2023-02-15T17:59:06;9.15;;;5.93;;
48124;SDS011;33908;47.436;18.918;2023-02-15T18:01:42;3.15;;;2.85;;
48124;SDS011;33908;47.436;18.918;2023-02-15T18:04:33;8.25;;;7.57;;
48124;SDS011;33908;47.436;18.918;2023-02-15T18:07:21;3.95;;;3.50;;
48124;SDS011;33908;47.436;18.918;2023-02-15T18:10:15;4.53;;;3.87;;
48124;SDS011;33908;47.436;18.918;2023-02-15T18:13:03;6.93;;;4.47;;
48124;SDS011;33908;47.436;18.918;2023-02-15T18:15:31;4.05;;;3.75;;
48124;SDS011;33908;47.436;18.918;2023-02-15T18:17:59;3.87;;;3.58;;
48124;SDS011;33908;47.436;18.918;2023-02-15T18:20:28;8.90;;;5.05;;
48124;SDS011;33908;47.436;18.918;2023-02-15T18:22:59;11.02;;;7.80;;
48124;SDS011;33908;47.436;18.918;2023-02-15T18:25:28;5.18;;;4.57;;